createdAt,value
2022-08-26T00:01:55.203Z,22.00
2022-08-26T00:04:23.702Z,22.00
2022-08-26T00:06:51.071Z,22.00
2022-08-26T00:09:18.270Z,22.00
2022-08-26T00:11:46.023Z,22.00
2022-08-26T00:14:15.232Z,22.00
2022-08-26T00:16:47.986Z,22.00
2022-08-26T00:19:16.927Z,22.00
2022-08-26T00:21:43.899Z,22.00
2022-08-26T00:24:10.844Z,22.00
2022-08-26T00:26:39.252Z,21.90
2022-08-26T00:29:08.495Z,21.90
2022-08-26T00:31:36.691Z,22.00
2022-08-26T00:34:05.549Z,21.90
2022-08-26T00:36:32.552Z,21.90
2022-08-26T00:38:59.503Z,21.90
2022-08-26T00:41:26.661Z,21.90
2022-08-26T00:43:54.446Z,21.90
2022-08-26T00:46:25.286Z,21.90
2022-08-26T00:48:59.092Z,21.90
2022-08-26T00:51:29.838Z,21.90
2022-08-26T00:54:01.981Z,21.90
2022-08-26T00:56:34.675Z,21.90
2022-08-26T00:59:06.584Z,21.90
2022-08-26T01:01:34.064Z,21.90
2022-08-26T01:04:01.771Z,21.90
2022-08-26T01:06:31.351Z,21.90
2022-08-26T01:08:58.454Z,21.90
2022-08-26T01:11:25.996Z,21.90
2022-08-26T01:13:54.666Z,21.90
2022-08-26T01:16:24.032Z,21.90
2022-08-26T01:18:52.672Z,21.90
2022-08-26T01:21:28.521Z,21.90
2022-08-26T01:23:59.446Z,21.90
2022-08-26T01:26:30.171Z,21.90
2022-08-26T01:29:00.336Z,21.90
2022-08-26T01:31:31.078Z,21.90
2022-08-26T01:34:05.679Z,21.90
2022-08-26T01:36:33.117Z,21.80
2022-08-26T01:39:01.715Z,21.80
2022-08-26T01:41:33.194Z,21.80
2022-08-26T01:44:02.930Z,21.80
2022-08-26T01:46:31.414Z,21.80
2022-08-26T01:49:02.416Z,21.80
2022-08-26T01:51:37.057Z,21.80
2022-08-26T01:54:07.346Z,21.80
2022-08-26T01:56:39.466Z,21.70
2022-08-26T01:59:11.201Z,21.80
2022-08-26T02:01:39.542Z,21.80
2022-08-26T02:04:15.731Z,21.80
2022-08-26T02:06:44.665Z,21.80
2022-08-26T02:09:13.647Z,21.70
2022-08-26T02:11:42.696Z,21.80
2022-08-26T02:14:12.956Z,21.70
2022-08-26T02:16:42.727Z,21.70
2022-08-26T02:19:16.955Z,21.70
2022-08-26T02:21:46.279Z,21.70
2022-08-26T02:24:22.056Z,21.70
2022-08-26T02:26:52.188Z,21.70
2022-08-26T02:29:28.896Z,21.60
2022-08-26T02:31:55.916Z,21.70
2022-08-26T02:34:28.119Z,21.60
2022-08-26T02:36:58.820Z,21.60
2022-08-26T02:39:27.498Z,21.60
2022-08-26T02:41:55.591Z,21.60
2022-08-26T02:44:22.551Z,21.50
2022-08-26T02:46:54.202Z,21.50
2022-08-26T02:49:22.271Z,21.50
2022-08-26T02:51:49.829Z,21.40
2022-08-26T02:54:18.154Z,21.40
2022-08-26T02:56:46.553Z,21.40
2022-08-26T02:59:13.726Z,21.40
2022-08-26T03:01:41.847Z,21.40
2022-08-26T03:04:11.147Z,21.30
2022-08-26T03:06:39.160Z,21.30
2022-08-26T03:09:08.541Z,21.40
2022-08-26T03:11:36.664Z,21.40
2022-08-26T03:14:05.076Z,21.30
2022-08-26T03:16:33.450Z,21.40
2022-08-26T03:19:03.219Z,21.40
2022-08-26T03:21:31.121Z,21.40
2022-08-26T03:23:59.218Z,21.30
2022-08-26T03:26:28.828Z,21.30
2022-08-26T03:29:18.574Z,21.20
2022-08-26T03:31:47.316Z,21.20
2022-08-26T03:34:14.487Z,21.10
2022-08-26T03:36:41.884Z,21.20
2022-08-26T03:39:08.885Z,21.20
2022-08-26T03:41:36.709Z,21.20
2022-08-26T03:44:05.982Z,21.10
2022-08-26T03:46:34.124Z,21.20
2022-08-26T03:49:05.172Z,21.20
2022-08-26T03:51:38.933Z,21.10
2022-08-26T03:54:08.313Z,21.20
2022-08-26T03:56:36.595Z,21.20
2022-08-26T03:59:05.033Z,21.20
2022-08-26T04:01:35.902Z,21.20
2022-08-26T04:04:05.336Z,21.20
2022-08-26T04:06:36.513Z,21.20
2022-08-26T04:09:10.832Z,21.20
2022-08-26T04:11:39.541Z,21.20
2022-08-26T04:14:09.847Z,21.20
2022-08-26T04:16:37.180Z,21.20
2022-08-26T04:19:06.539Z,21.20
2022-08-26T04:21:35.089Z,21.20
2022-08-26T04:24:03.552Z,21.30
2022-08-26T04:26:39.366Z,21.20
2022-08-26T04:29:08.852Z,21.20
2022-08-26T04:31:36.941Z,21.20
2022-08-26T04:34:07.252Z,21.20
2022-08-26T04:36:34.917Z,21.20
2022-08-26T04:39:03.419Z,21.10
2022-08-26T04:41:31.612Z,21.10
2022-08-26T04:43:58.801Z,21.10
2022-08-26T04:46:26.023Z,21.10
2022-08-26T04:48:54.020Z,21.10
2022-08-26T04:51:27.400Z,21.10
2022-08-26T04:53:57.186Z,21.00
2022-08-26T04:56:25.445Z,21.10
2022-08-26T04:58:52.890Z,21.00
2022-08-26T05:01:20.641Z,21.00
2022-08-26T05:03:47.723Z,21.00
2022-08-26T05:06:15.702Z,21.00
2022-08-26T05:08:47.398Z,21.00
2022-08-26T05:11:15.366Z,20.90
2022-08-26T05:13:42.835Z,20.90
2022-08-26T05:16:12.716Z,20.90
2022-08-26T05:18:43.475Z,20.90
2022-08-26T05:21:17.533Z,20.90
2022-08-26T05:23:44.592Z,20.90
2022-08-26T05:26:13.450Z,20.90
2022-08-26T05:28:43.482Z,20.90
2022-08-26T05:31:15.181Z,20.90
2022-08-26T05:33:44.291Z,20.90
2022-08-26T05:36:15.355Z,20.90
2022-08-26T05:38:44.056Z,20.90
2022-08-26T05:41:17.963Z,21.00
2022-08-26T05:43:44.937Z,21.00
2022-08-26T05:46:12.744Z,21.00
2022-08-26T05:48:48.545Z,21.00
2022-08-26T05:51:15.506Z,21.00
2022-08-26T05:53:54.567Z,21.00
2022-08-26T05:56:26.074Z,21.00
2022-08-26T05:58:53.093Z,21.00
2022-08-26T06:01:23.675Z,21.10
2022-08-26T06:03:53.296Z,21.10
2022-08-26T06:06:28.084Z,21.20
2022-08-26T06:08:57.957Z,21.20
2022-08-26T06:11:28.623Z,21.20
2022-08-26T06:14:02.720Z,21.20
2022-08-26T06:16:31.576Z,21.20
2022-08-26T06:18:58.529Z,21.20
2022-08-26T06:21:28.996Z,21.20
2022-08-26T06:24:17.238Z,21.30
2022-08-26T06:26:50.893Z,21.30
2022-08-26T06:29:24.316Z,21.40
2022-08-26T06:31:52.203Z,21.40
2022-08-26T06:34:19.580Z,21.40
2022-08-26T06:36:47.791Z,21.50
2022-08-26T06:39:16.700Z,21.50
2022-08-26T06:41:45.096Z,21.50
2022-08-26T06:44:15.800Z,21.60
2022-08-26T06:46:44.282Z,21.50
2022-08-26T06:49:12.608Z,21.50
2022-08-26T06:51:40.809Z,21.60
2022-08-26T06:54:10.671Z,21.60
2022-08-26T06:56:41.104Z,21.60
2022-08-26T06:59:08.559Z,21.60
2022-08-26T07:01:39.119Z,21.70
2022-08-26T07:04:11.113Z,21.70
2022-08-26T07:06:40.547Z,21.70
2022-08-26T07:09:09.780Z,21.70
2022-08-26T07:11:38.335Z,21.70
2022-08-26T07:14:06.854Z,21.60
2022-08-26T07:16:34.521Z,21.60
2022-08-26T07:19:11.302Z,21.60
2022-08-26T07:21:41.579Z,21.50
2022-08-26T07:24:11.073Z,21.50
2022-08-26T07:26:43.056Z,21.50
2022-08-26T07:29:12.850Z,21.50
2022-08-26T07:31:42.344Z,21.50
2022-08-26T07:34:14.142Z,21.50
2022-08-26T07:36:41.922Z,21.50
2022-08-26T07:39:09.192Z,21.50
2022-08-26T07:41:39.408Z,21.50
2022-08-26T07:44:06.443Z,21.50
2022-08-26T07:46:35.944Z,21.60
2022-08-26T07:49:03.327Z,21.60
2022-08-26T07:51:32.156Z,21.60
2022-08-26T07:53:59.243Z,21.60
2022-08-26T07:56:26.440Z,21.60
2022-08-26T07:58:54.178Z,21.60
2022-08-26T08:01:21.918Z,21.70
2022-08-26T08:03:51.667Z,21.70
2022-08-26T08:06:19.459Z,21.80
2022-08-26T08:08:48.425Z,21.80
2022-08-26T08:11:20.399Z,21.80
2022-08-26T08:13:47.888Z,21.90
2022-08-26T08:16:16.132Z,21.80
2022-08-26T08:18:43.081Z,21.80
2022-08-26T08:21:21.963Z,21.90
2022-08-26T08:23:52.989Z,21.90
2022-08-26T08:26:20.369Z,21.90
2022-08-26T08:28:48.390Z,21.90
2022-08-26T08:31:38.547Z,21.90
2022-08-26T08:34:08.809Z,21.90
2022-08-26T08:36:36.475Z,21.90
2022-08-26T08:39:04.926Z,21.90
2022-08-26T08:41:51.193Z,21.90
2022-08-26T08:44:21.559Z,21.90
2022-08-26T08:46:56.385Z,22.00
2022-08-26T08:49:25.969Z,22.00
2022-08-26T08:51:59.152Z,22.00
2022-08-26T08:54:30.016Z,21.90
2022-08-26T08:57:02.795Z,21.90
2022-08-26T08:59:34.335Z,22.00
2022-08-26T09:02:09.503Z,22.00
2022-08-26T09:04:58.712Z,22.10
2022-08-26T09:07:28.180Z,22.20
2022-08-26T09:09:59.366Z,22.20
2022-08-26T09:12:30.315Z,22.20
2022-08-26T09:15:02.360Z,22.20
2022-08-26T09:17:40.712Z,22.20
2022-08-26T09:20:16.394Z,22.30
2022-08-26T09:22:44.246Z,22.20
2022-08-26T09:25:14.749Z,22.20
2022-08-26T09:27:45.606Z,22.20
2022-08-26T09:30:15.709Z,22.20
2022-08-26T09:32:44.052Z,22.10
2022-08-26T09:35:28.470Z,22.10
2022-08-26T09:37:55.793Z,22.00
2022-08-26T09:40:35.030Z,22.00
2022-08-26T09:43:15.936Z,21.90
2022-08-26T09:45:59.213Z,21.90
2022-08-26T09:48:35.476Z,21.90
2022-08-26T09:51:06.883Z,21.90
2022-08-26T09:53:49.329Z,21.90
2022-08-26T09:56:27.521Z,21.90
2022-08-26T09:58:56.915Z,21.90
2022-08-26T10:01:30.561Z,21.90
2022-08-26T10:04:06.334Z,21.90
2022-08-26T10:06:38.620Z,22.00
2022-08-26T10:09:09.904Z,22.00
2022-08-26T10:11:43.289Z,22.10
2022-08-26T10:14:15.685Z,22.20
2022-08-26T10:16:48.508Z,22.20
2022-08-26T10:19:19.977Z,22.20
2022-08-26T10:21:54.551Z,22.20
2022-08-26T10:24:26.006Z,22.20
2022-08-26T10:27:02.553Z,22.20
2022-08-26T10:29:35.953Z,22.20
2022-08-26T10:32:13.874Z,22.20
2022-08-26T10:34:42.246Z,22.30
2022-08-26T10:37:16.428Z,22.40
2022-08-26T10:39:57.342Z,22.40
2022-08-26T10:42:33.438Z,22.40
2022-08-26T10:45:07.615Z,22.40
2022-08-26T10:47:45.095Z,22.40
2022-08-26T10:50:12.849Z,22.50
2022-08-26T10:52:52.515Z,22.40
2022-08-26T10:55:25.244Z,22.40
2022-08-26T10:58:04.534Z,22.40
2022-08-26T11:00:56.261Z,22.40
2022-08-26T11:03:34.634Z,22.50
2022-08-26T11:06:25.063Z,22.50
2022-08-26T11:08:53.882Z,22.60
2022-08-26T11:11:49.800Z,22.60
2022-08-26T11:14:40.725Z,22.60
2022-08-26T11:17:57.380Z,22.70
2022-08-26T11:20:39.095Z,22.80
2022-08-26T11:23:37.633Z,22.90
2022-08-26T11:26:36.276Z,22.90
2022-08-26T11:29:04.491Z,22.90
2022-08-26T11:31:56.817Z,22.90
2022-08-26T11:34:52.233Z,23.00
2022-08-26T11:39:54.757Z,22.90
2022-08-26T11:42:31.294Z,22.90
2022-08-26T11:44:59.871Z,22.80
2022-08-26T11:47:31.993Z,22.70
2022-08-26T11:50:13.382Z,22.70
2022-08-26T11:52:40.457Z,22.60
2022-08-26T11:55:11.517Z,22.60
2022-08-26T11:57:45.010Z,22.60
2022-08-26T12:00:22.342Z,22.70
2022-08-26T12:02:52.573Z,22.70
2022-08-26T12:05:25.629Z,22.70
2022-08-26T12:07:59.305Z,22.80
2022-08-26T12:10:33.565Z,22.90
2022-08-26T12:13:02.763Z,22.90
2022-08-26T12:15:32.442Z,22.90
2022-08-26T12:18:17.531Z,23.00
2022-08-26T12:20:48.814Z,22.90
2022-08-26T12:23:24.304Z,22.90
2022-08-26T12:25:52.809Z,23.00
2022-08-26T12:28:23.147Z,22.90
2022-08-26T12:31:03.044Z,22.90
2022-08-26T12:33:41.146Z,22.90
2022-08-26T12:36:11.001Z,22.90
2022-08-26T12:38:40.924Z,22.90
2022-08-26T12:41:08.062Z,22.90
2022-08-26T12:43:41.024Z,22.90
2022-08-26T12:46:11.182Z,22.90
2022-08-26T12:48:44.767Z,22.90
2022-08-26T12:51:25.734Z,22.90
2022-08-26T12:53:53.869Z,22.90
2022-08-26T12:56:27.828Z,22.80
2022-08-26T12:59:07.600Z,22.80
2022-08-26T13:01:40.645Z,22.80
2022-08-26T13:04:33.693Z,22.80
2022-08-26T13:07:22.148Z,22.80
2022-08-26T13:09:50.659Z,22.70
2022-08-26T13:12:26.308Z,22.70
2022-08-26T13:14:54.046Z,22.70
2022-08-26T13:17:21.095Z,22.70
2022-08-26T13:19:49.425Z,22.70
2022-08-26T13:22:22.439Z,22.70
2022-08-26T13:24:50.589Z,22.70
2022-08-26T13:27:20.473Z,22.70
2022-08-26T13:29:47.777Z,22.70
2022-08-26T13:32:14.916Z,22.60
2022-08-26T13:34:42.426Z,22.60
2022-08-26T13:37:10.600Z,22.60
2022-08-26T13:39:38.131Z,22.60
2022-08-26T13:42:07.465Z,22.60
2022-08-26T13:44:34.844Z,22.50
2022-08-26T13:47:01.999Z,22.50
2022-08-26T13:49:29.110Z,22.50
2022-08-26T13:51:56.036Z,22.50
2022-08-26T13:54:24.405Z,22.50
2022-08-26T13:56:51.710Z,22.50
2022-08-26T13:59:20.451Z,22.50
2022-08-26T14:01:47.710Z,22.50
2022-08-26T14:04:14.812Z,22.50
2022-08-26T14:06:42.804Z,22.50
2022-08-26T14:09:11.532Z,22.40
2022-08-26T14:11:54.058Z,22.40
2022-08-26T14:14:21.890Z,22.40
2022-08-26T14:16:58.992Z,22.40
2022-08-26T14:19:27.596Z,22.40
2022-08-26T14:21:54.550Z,22.40
2022-08-26T14:24:21.851Z,22.30
2022-08-26T14:26:50.660Z,22.40
2022-08-26T14:29:17.639Z,22.30
2022-08-26T14:31:45.646Z,22.30
2022-08-26T14:34:14.188Z,22.30
2022-08-26T14:36:41.245Z,22.30
2022-08-26T14:39:10.444Z,22.40
2022-08-26T14:41:42.881Z,22.40
2022-08-26T14:44:14.819Z,22.40
2022-08-26T14:46:45.573Z,22.40
2022-08-26T14:49:13.975Z,22.50
2022-08-26T14:51:41.157Z,22.50
2022-08-26T14:54:11.902Z,22.50
2022-08-26T14:56:42.982Z,22.50
2022-08-26T14:59:12.061Z,22.50
2022-08-26T15:01:42.259Z,22.50
2022-08-26T15:04:09.966Z,22.60
2022-08-26T15:06:37.278Z,22.60
2022-08-26T15:09:05.157Z,22.60
2022-08-26T15:11:32.508Z,22.70
2022-08-26T15:14:05.477Z,22.70
2022-08-26T15:16:34.661Z,22.70
2022-08-26T15:19:04.698Z,22.80
2022-08-26T15:21:32.410Z,22.80
2022-08-26T15:24:02.735Z,22.80
2022-08-26T15:26:31.493Z,22.80
2022-08-26T15:29:01.907Z,22.80
2022-08-26T15:31:34.242Z,22.70
2022-08-26T15:34:05.213Z,22.80
2022-08-26T15:36:33.409Z,22.70
2022-08-26T15:39:01.197Z,22.70
2022-08-26T15:41:29.564Z,22.70
2022-08-26T15:43:57.940Z,22.70
2022-08-26T15:46:25.130Z,22.60
2022-08-26T15:48:53.920Z,22.60
2022-08-26T15:51:22.830Z,22.70
2022-08-26T15:53:50.076Z,22.70
2022-08-26T15:56:17.204Z,22.80
2022-08-26T15:58:45.393Z,22.90
2022-08-26T16:01:13.093Z,23.10
2022-08-26T16:03:46.182Z,23.30
2022-08-26T16:06:16.907Z,23.50
2022-08-26T16:08:45.093Z,23.70
2022-08-26T16:11:13.588Z,23.80
2022-08-26T16:13:40.859Z,23.90
2022-08-26T16:16:08.455Z,24.00
2022-08-26T16:18:35.601Z,24.10
2022-08-26T16:21:13.626Z,24.20
2022-08-26T16:23:43.191Z,24.30
2022-08-26T16:26:15.483Z,24.50
2022-08-26T16:28:43.838Z,24.60
2022-08-26T16:31:12.276Z,24.70
2022-08-26T16:33:39.972Z,24.70
2022-08-26T16:36:08.331Z,24.70
2022-08-26T16:38:37.551Z,24.70
2022-08-26T16:41:06.770Z,24.60
2022-08-26T16:43:33.908Z,24.70
2022-08-26T16:46:00.973Z,24.80
2022-08-26T16:48:28.174Z,24.80
2022-08-26T16:51:01.269Z,24.70
2022-08-26T16:53:28.177Z,24.60
2022-08-26T16:55:55.438Z,24.60
2022-08-26T16:58:23.838Z,24.50
2022-08-26T17:00:50.832Z,24.40
2022-08-26T17:03:17.772Z,24.20
2022-08-26T17:05:44.820Z,24.10
2022-08-26T17:08:14.541Z,23.90
2022-08-26T17:10:54.869Z,23.80
2022-08-26T17:13:35.272Z,23.60
2022-08-26T17:16:04.766Z,23.50
2022-08-26T17:18:33.765Z,23.30
2022-08-26T17:21:02.231Z,23.20
2022-08-26T17:23:29.413Z,23.00
2022-08-26T17:25:56.330Z,22.90
2022-08-26T17:28:24.976Z,22.90
2022-08-26T17:30:51.989Z,22.80
2022-08-26T17:33:21.939Z,22.70
2022-08-26T17:35:51.803Z,22.60
2022-08-26T17:38:18.673Z,22.60
2022-08-26T17:40:45.519Z,22.50
2022-08-26T17:43:12.701Z,22.50
2022-08-26T17:45:41.720Z,22.50
2022-08-26T17:48:09.709Z,22.50
2022-08-26T17:50:38.569Z,22.50
2022-08-26T17:53:05.894Z,22.40
2022-08-26T17:55:32.996Z,22.40
2022-08-26T17:58:00.914Z,22.40
2022-08-26T18:00:33.249Z,22.30
2022-08-26T18:03:02.549Z,22.30
2022-08-26T18:05:30.277Z,22.20
2022-08-26T18:07:57.383Z,22.20
2022-08-26T18:10:26.033Z,22.10
2022-08-26T18:12:53.095Z,22.00
2022-08-26T18:15:20.466Z,21.90
2022-08-26T18:17:47.310Z,21.90
2022-08-26T18:20:19.979Z,21.90
2022-08-26T18:22:48.311Z,21.90
2022-08-26T18:25:16.612Z,21.90
2022-08-26T18:27:44.067Z,21.80
2022-08-26T18:30:16.596Z,21.80
2022-08-26T18:32:43.999Z,21.70
2022-08-26T18:35:11.838Z,21.70
2022-08-26T18:37:40.627Z,21.60
2022-08-26T18:40:10.219Z,21.60
2022-08-26T18:42:38.359Z,21.60
2022-08-26T18:45:06.787Z,21.60
2022-08-26T18:47:34.600Z,21.50
2022-08-26T18:50:04.066Z,21.50
2022-08-26T18:52:31.712Z,21.40
2022-08-26T18:55:01.624Z,21.40
2022-08-26T18:57:28.565Z,21.40
2022-08-26T18:59:55.876Z,21.40
2022-08-26T19:02:22.992Z,21.30
2022-08-26T19:04:51.776Z,21.20
2022-08-26T19:07:19.310Z,21.20
2022-08-26T19:09:46.384Z,21.10
2022-08-26T19:12:14.974Z,21.10
2022-08-26T19:14:51.941Z,21.00
2022-08-26T19:17:18.811Z,21.00
2022-08-26T19:19:53.990Z,20.90
2022-08-26T19:22:22.214Z,20.90
2022-08-26T19:24:49.037Z,20.90
2022-08-26T19:27:17.447Z,20.90
2022-08-26T19:29:44.391Z,20.80
2022-08-26T19:32:12.772Z,20.80
2022-08-26T19:34:39.721Z,20.70
2022-08-26T19:37:06.799Z,20.70
2022-08-26T19:39:33.960Z,20.60
2022-08-26T19:42:00.824Z,20.60
2022-08-26T19:44:47.753Z,20.60
2022-08-26T19:47:15.142Z,20.50
2022-08-26T19:49:42.693Z,20.50
2022-08-26T19:52:11.649Z,20.40
2022-08-26T19:54:39.540Z,20.40
2022-08-26T19:57:06.791Z,20.40
2022-08-26T19:59:36.326Z,20.30
2022-08-26T20:02:05.991Z,20.30
2022-08-26T20:04:34.566Z,20.30
2022-08-26T20:07:02.861Z,20.20
2022-08-26T20:09:31.101Z,20.20
2022-08-26T20:11:58.095Z,20.10
2022-08-26T20:14:26.029Z,20.10
2022-08-26T20:16:55.176Z,20.00
2022-08-26T20:19:40.588Z,19.90
2022-08-26T20:22:08.609Z,19.90
2022-08-26T20:24:35.668Z,19.90
2022-08-26T20:27:07.792Z,19.80
2022-08-26T20:29:35.523Z,19.70
2022-08-26T20:32:05.866Z,19.70
2022-08-26T20:34:33.981Z,19.70
2022-08-26T20:37:04.365Z,19.60
2022-08-26T20:39:31.721Z,19.60
2022-08-26T20:41:58.653Z,19.50
2022-08-26T20:44:26.268Z,19.50
2022-08-26T20:46:53.589Z,19.50
2022-08-26T20:49:22.485Z,19.40
2022-08-26T20:51:52.712Z,19.40
2022-08-26T20:54:23.045Z,19.40
2022-08-26T20:56:53.386Z,19.30
2022-08-26T20:59:24.434Z,19.20
2022-08-26T21:01:54.329Z,19.20
2022-08-26T21:04:24.646Z,19.10
2022-08-26T21:06:53.178Z,19.00
2022-08-26T21:09:21.748Z,19.00
2022-08-26T21:11:48.685Z,18.90
2022-08-26T21:14:16.963Z,18.90
2022-08-26T21:16:45.884Z,18.90
2022-08-26T21:19:15.957Z,18.80
2022-08-26T21:21:44.984Z,18.80
2022-08-26T21:24:13.386Z,18.70
2022-08-26T21:26:40.670Z,18.60
2022-08-26T21:29:09.730Z,18.60
2022-08-26T21:31:41.027Z,18.50
2022-08-26T21:34:12.203Z,18.40
2022-08-26T21:36:39.037Z,18.40
2022-08-26T21:39:11.480Z,18.40
2022-08-26T21:41:40.357Z,18.30
2022-08-26T21:44:07.990Z,18.30
2022-08-26T21:46:37.219Z,18.30
2022-08-26T21:49:07.340Z,18.20
2022-08-26T21:51:42.915Z,18.10
2022-08-26T21:54:12.667Z,18.10
2022-08-26T21:56:42.110Z,18.00
2022-08-26T21:59:09.679Z,17.90
2022-08-26T22:01:37.842Z,17.90
2022-08-26T22:04:07.189Z,17.90
2022-08-26T22:06:39.047Z,17.90
2022-08-26T22:09:06.400Z,17.80
2022-08-26T22:11:34.627Z,17.80
2022-08-26T22:14:01.589Z,17.70
2022-08-26T22:16:28.788Z,17.70
2022-08-26T22:18:55.812Z,17.70
2022-08-26T22:21:25.095Z,17.70
2022-08-26T22:23:57.876Z,17.60
2022-08-26T22:26:31.231Z,17.60
2022-08-26T22:29:00.619Z,17.60
2022-08-26T22:31:37.820Z,17.50
2022-08-26T22:34:07.653Z,17.50
2022-08-26T22:36:34.981Z,17.50
2022-08-26T22:39:02.211Z,17.40
2022-08-26T22:41:29.244Z,17.50
2022-08-26T22:44:03.279Z,17.40
2022-08-26T22:46:30.346Z,17.40
2022-08-26T22:48:57.185Z,17.40
2022-08-26T22:51:24.555Z,17.40
2022-08-26T22:53:51.417Z,17.40
2022-08-26T22:56:19.519Z,17.40
2022-08-26T22:58:46.626Z,17.40
2022-08-26T23:01:16.960Z,17.30
2022-08-26T23:03:45.920Z,17.30
2022-08-26T23:06:12.924Z,17.30
2022-08-26T23:08:40.620Z,17.30
2022-08-26T23:11:10.873Z,17.20
2022-08-26T23:13:39.058Z,17.20
2022-08-26T23:16:12.143Z,17.20
2022-08-26T23:18:41.075Z,17.20
2022-08-26T23:21:09.039Z,17.20
2022-08-26T23:23:36.089Z,17.20
2022-08-26T23:26:06.162Z,17.20
2022-08-26T23:28:34.577Z,17.20
2022-08-26T23:31:01.755Z,17.20
2022-08-26T23:33:48.923Z,17.30
2022-08-26T23:36:18.405Z,17.20
2022-08-26T23:38:52.967Z,17.30
2022-08-26T23:41:21.628Z,17.30
2022-08-26T23:43:48.944Z,17.30
2022-08-26T23:46:16.041Z,17.30
2022-08-26T23:48:42.978Z,17.40
2022-08-26T23:51:28.363Z,17.40
2022-08-26T23:53:58.169Z,17.40
2022-08-26T23:56:26.763Z,17.50
2022-08-26T23:58:54.420Z,17.50
